sensor_id;sensor_type;location;lat;lon;timestamp;pressure;altitude;pressure_sealevel;temperature;humidity
56038;BME280;41907;47.848;9.000;2022-08-21T00:00:15;96021.63;;;14.76;100.00
56038;BME280;41907;47.848;9.000;2022-08-21T00:02:51;96022.63;;;14.72;100.00
56038;BME280;41907;47.848;9.000;2022-08-21T00:05:18;96022.25;;;14.73;100.00
56038;BME280;41907;47.848;9.000;2022-08-21T00:07:44;96016.63;;;14.66;100.00
56038;BME280;41907;47.848;9.000;2022-08-21T00:10:10;96012.56;;;14.60;100.00
56038;BME280;41907;47.848;9.000;2022-08-21T00:12:36;96004.19;;;14.62;100.00
56038;BME280;41907;47.848;9.000;2022-08-21T00:15:05;96007.22;;;14.60;100.00
56038;BME280;41907;47.848;9.000;2022-08-21T00:17:30;96009.44;;;14.58;100.00
56038;BME280;41907;47.848;9.000;2022-08-21T00:19:56;96005.50;;;14.56;100.00
56038;BME280;41907;47.848;9.000;2022-08-21T00:22:21;96003.00;;;14.50;100.00
56038;BME280;41907;47.848;9.000;2022-08-21T00:24:46;96009.53;;;14.41;100.00
56038;BME280;41907;47.848;9.000;2022-08-21T00:27:12;96003.72;;;14.30;100.00
56038;BME280;41907;47.848;9.000;2022-08-21T00:29:37;95999.25;;;14.34;100.00
56038;BME280;41907;47.848;9.000;2022-08-21T00:32:03;96008.63;;;14.28;100.00
56038;BME280;41907;47.848;9.000;2022-08-21T00:34:28;96004.69;;;14.26;100.00
56038;BME280;41907;47.848;9.000;2022-08-21T00:36:53;96007.50;;;14.29;100.00
56038;BME280;41907;47.848;9.000;2022-08-21T00:39:19;96003.31;;;14.20;100.00
56038;BME280;41907;47.848;9.000;2022-08-21T00:41:44;96009.50;;;14.11;100.00
56038;BME280;41907;47.848;9.000;2022-08-21T00:44:12;96003.84;;;14.04;100.00
56038;BME280;41907;47.848;9.000;2022-08-21T00:46:39;96007.50;;;14.00;100.00
56038;BME280;41907;47.848;9.000;2022-08-21T00:49:06;95997.13;;;13.90;100.00
56038;BME280;41907;47.848;9.000;2022-08-21T00:51:54;95999.53;;;13.83;100.00
56038;BME280;41907;47.848;9.000;2022-08-21T00:54:22;95994.97;;;13.74;100.00
56038;BME280;41907;47.848;9.000;2022-08-21T00:56:55;95995.94;;;13.70;100.00
56038;BME280;41907;47.848;9.000;2022-08-21T00:59:23;95994.03;;;13.70;100.00
56038;BME280;41907;47.848;9.000;2022-08-21T01:01:49;95998.28;;;13.71;100.00
56038;BME280;41907;47.848;9.000;2022-08-21T01:04:15;95991.19;;;13.75;100.00
56038;BME280;41907;47.848;9.000;2022-08-21T01:06:41;95987.81;;;13.87;100.00
56038;BME280;41907;47.848;9.000;2022-08-21T01:09:07;95981.50;;;13.92;100.00
56038;BME280;41907;47.848;9.000;2022-08-21T01:11:34;95969.09;;;13.78;100.00
56038;BME280;41907;47.848;9.000;2022-08-21T01:14:00;95981.84;;;13.82;100.00
56038;BME280;41907;47.848;9.000;2022-08-21T01:16:26;95983.41;;;13.91;100.00
56038;BME280;41907;47.848;9.000;2022-08-21T01:18:51;95983.09;;;13.93;100.00
56038;BME280;41907;47.848;9.000;2022-08-21T01:21:23;95980.09;;;13.94;100.00
56038;BME280;41907;47.848;9.000;2022-08-21T01:23:52;95983.22;;;13.96;100.00
56038;BME280;41907;47.848;9.000;2022-08-21T01:26:22;95976.94;;;13.92;100.00
56038;BME280;41907;47.848;9.000;2022-08-21T01:28:55;95973.47;;;13.92;100.00
56038;BME280;41907;47.848;9.000;2022-08-21T01:31:24;95975.50;;;13.95;100.00
56038;BME280;41907;47.848;9.000;2022-08-21T01:33:50;95969.84;;;13.88;100.00
56038;BME280;41907;47.848;9.000;2022-08-21T01:36:16;95974.28;;;13.84;100.00
56038;BME280;41907;47.848;9.000;2022-08-21T01:38:41;95958.06;;;13.80;100.00
56038;BME280;41907;47.848;9.000;2022-08-21T01:41:07;95958.66;;;13.86;100.00
56038;BME280;41907;47.848;9.000;2022-08-21T01:43:33;95957.88;;;13.85;100.00
56038;BME280;41907;47.848;9.000;2022-08-21T01:45:58;95960.56;;;13.85;100.00
56038;BME280;41907;47.848;9.000;2022-08-21T01:48:23;95965.31;;;13.79;100.00
56038;BME280;41907;47.848;9.000;2022-08-21T01:50:49;95965.22;;;13.67;100.00
56038;BME280;41907;47.848;9.000;2022-08-21T01:53:14;95963.97;;;13.56;100.00
56038;BME280;41907;47.848;9.000;2022-08-21T01:55:41;95961.19;;;13.44;100.00
56038;BME280;41907;47.848;9.000;2022-08-21T01:58:07;95960.88;;;13.37;100.00
56038;BME280;41907;47.848;9.000;2022-08-21T02:00:32;95953.00;;;13.32;100.00
56038;BME280;41907;47.848;9.000;2022-08-21T02:02:58;95961.38;;;13.22;100.00
56038;BME280;41907;47.848;9.000;2022-08-21T02:05:23;95957.78;;;13.18;100.00
56038;BME280;41907;47.848;9.000;2022-08-21T02:07:51;95953.69;;;13.20;100.00
56038;BME280;41907;47.848;9.000;2022-08-21T02:10:21;95954.47;;;13.21;100.00
56038;BME280;41907;47.848;9.000;2022-08-21T02:12:47;95956.00;;;13.22;100.00
56038;BME280;41907;47.848;9.000;2022-08-21T02:15:12;95957.75;;;13.26;100.00
56038;BME280;41907;47.848;9.000;2022-08-21T02:17:51;95954.44;;;13.29;100.00
56038;BME280;41907;47.848;9.000;2022-08-21T02:20:34;95938.84;;;13.23;100.00
56038;BME280;41907;47.848;9.000;2022-08-21T02:23:00;95941.22;;;13.24;100.00
56038;BME280;41907;47.848;9.000;2022-08-21T02:25:27;95937.28;;;13.30;100.00
56038;BME280;41907;47.848;9.000;2022-08-21T02:27:53;95949.88;;;13.30;100.00
56038;BME280;41907;47.848;9.000;2022-08-21T02:30:26;95946.84;;;13.31;100.00
56038;BME280;41907;47.848;9.000;2022-08-21T02:32:52;95935.03;;;13.32;100.00
56038;BME280;41907;47.848;9.000;2022-08-21T02:35:18;95943.56;;;13.26;100.00
56038;BME280;41907;47.848;9.000;2022-08-21T02:37:56;95938.53;;;13.24;100.00
56038;BME280;41907;47.848;9.000;2022-08-21T02:40:25;95943.09;;;13.24;100.00
56038;BME280;41907;47.848;9.000;2022-08-21T02:42:51;95939.50;;;13.20;100.00
56038;BME280;41907;47.848;9.000;2022-08-21T02:45:17;95939.16;;;13.13;100.00
56038;BME280;41907;47.848;9.000;2022-08-21T02:47:55;95941.53;;;13.05;100.00
56038;BME280;41907;47.848;9.000;2022-08-21T02:50:24;95939.97;;;12.96;100.00
56038;BME280;41907;47.848;9.000;2022-08-21T02:52:50;95945.94;;;12.93;100.00
56038;BME280;41907;47.848;9.000;2022-08-21T02:55:21;95943.44;;;12.96;100.00
56038;BME280;41907;47.848;9.000;2022-08-21T02:57:48;95947.22;;;12.95;100.00
56038;BME280;41907;47.848;9.000;2022-08-21T03:00:14;95938.56;;;12.98;100.00
56038;BME280;41907;47.848;9.000;2022-08-21T03:02:39;95942.16;;;13.02;100.00
56038;BME280;41907;47.848;9.000;2022-08-21T03:05:06;95940.13;;;13.08;100.00
56038;BME280;41907;47.848;9.000;2022-08-21T03:07:32;95940.91;;;13.09;100.00
56038;BME280;41907;47.848;9.000;2022-08-21T03:09:57;95937.56;;;13.12;100.00
56038;BME280;41907;47.848;9.000;2022-08-21T03:12:24;95935.09;;;13.15;100.00
56038;BME280;41907;47.848;9.000;2022-08-21T03:14:49;95941.22;;;13.24;100.00
56038;BME280;41907;47.848;9.000;2022-08-21T03:17:14;95931.13;;;13.21;100.00
56038;BME280;41907;47.848;9.000;2022-08-21T03:19:40;95926.13;;;13.20;100.00
56038;BME280;41907;47.848;9.000;2022-08-21T03:22:05;95924.22;;;13.20;100.00
56038;BME280;41907;47.848;9.000;2022-08-21T03:24:31;95927.03;;;13.24;100.00
56038;BME280;41907;47.848;9.000;2022-08-21T03:26:56;95930.69;;;13.19;100.00
56038;BME280;41907;47.848;9.000;2022-08-21T03:29:22;95933.03;;;13.21;100.00
56038;BME280;41907;47.848;9.000;2022-08-21T03:31:47;95935.38;;;13.22;100.00
56038;BME280;41907;47.848;9.000;2022-08-21T03:34:12;95949.13;;;13.21;100.00
56038;BME280;41907;47.848;9.000;2022-08-21T03:36:38;95947.06;;;13.18;100.00
56038;BME280;41907;47.848;9.000;2022-08-21T03:39:03;95943.75;;;13.21;100.00
56038;BME280;41907;47.848;9.000;2022-08-21T03:41:29;95947.19;;;13.21;100.00
56038;BME280;41907;47.848;9.000;2022-08-21T03:43:54;95941.38;;;13.28;100.00
56038;BME280;41907;47.848;9.000;2022-08-21T03:46:20;95943.38;;;13.31;100.00
56038;BME280;41907;47.848;9.000;2022-08-21T03:48:45;95942.59;;;13.39;100.00
56038;BME280;41907;47.848;9.000;2022-08-21T03:51:11;95944.47;;;13.47;100.00
56038;BME280;41907;47.848;9.000;2022-08-21T03:53:37;95936.44;;;13.47;100.00
56038;BME280;41907;47.848;9.000;2022-08-21T03:56:03;95944.16;;;13.49;100.00
56038;BME280;41907;47.848;9.000;2022-08-21T03:58:29;95942.53;;;13.56;100.00
56038;BME280;41907;47.848;9.000;2022-08-21T04:00:57;95952.13;;;13.66;100.00
56038;BME280;41907;47.848;9.000;2022-08-21T04:03:24;95953.66;;;13.75;100.00
56038;BME280;41907;47.848;9.000;2022-08-21T04:05:50;95950.78;;;13.81;100.00
56038;BME280;41907;47.848;9.000;2022-08-21T04:08:16;95945.44;;;13.81;100.00
56038;BME280;41907;47.848;9.000;2022-08-21T04:10:45;95948.94;;;13.72;100.00
56038;BME280;41907;47.848;9.000;2022-08-21T04:13:11;95946.56;;;13.71;100.00
56038;BME280;41907;47.848;9.000;2022-08-21T04:15:37;95957.97;;;13.68;100.00
56038;BME280;41907;47.848;9.000;2022-08-21T04:18:04;95947.88;;;13.65;100.00
56038;BME280;41907;47.848;9.000;2022-08-21T04:20:29;95951.69;;;13.55;100.00
56038;BME280;41907;47.848;9.000;2022-08-21T04:22:55;95951.06;;;13.58;100.00
56038;BME280;41907;47.848;9.000;2022-08-21T04:25:23;95959.53;;;13.60;100.00
56038;BME280;41907;47.848;9.000;2022-08-21T04:27:50;95951.22;;;13.53;100.00
56038;BME280;41907;47.848;9.000;2022-08-21T04:30:16;95958.31;;;13.58;100.00
56038;BME280;41907;47.848;9.000;2022-08-21T04:32:46;95959.09;;;13.58;100.00
56038;BME280;41907;47.848;9.000;2022-08-21T04:35:13;95965.84;;;13.64;100.00
56038;BME280;41907;47.848;9.000;2022-08-21T04:37:39;95962.97;;;13.69;100.00
56038;BME280;41907;47.848;9.000;2022-08-21T04:40:05;95975.44;;;13.74;100.00
56038;BME280;41907;47.848;9.000;2022-08-21T04:42:32;95968.09;;;13.92;100.00
56038;BME280;41907;47.848;9.000;2022-08-21T04:44:58;95966.69;;;13.94;100.00
56038;BME280;41907;47.848;9.000;2022-08-21T04:47:24;95972.31;;;14.01;100.00
56038;BME280;41907;47.848;9.000;2022-08-21T04:49:50;95974.94;;;14.10;100.00
56038;BME280;41907;47.848;9.000;2022-08-21T04:52:19;95973.16;;;14.23;100.00
56038;BME280;41907;47.848;9.000;2022-08-21T04:54:47;95973.56;;;14.33;100.00
56038;BME280;41907;47.848;9.000;2022-08-21T04:57:15;95970.09;;;14.33;100.00
56038;BME280;41907;47.848;9.000;2022-08-21T04:59:44;95971.25;;;14.23;100.00
56038;BME280;41907;47.848;9.000;2022-08-21T05:02:11;95972.22;;;14.19;100.00
56038;BME280;41907;47.848;9.000;2022-08-21T05:04:41;95970.59;;;14.26;100.00
56038;BME280;41907;47.848;9.000;2022-08-21T05:07:11;95980.63;;;14.38;100.00
56038;BME280;41907;47.848;9.000;2022-08-21T05:09:38;95976.16;;;14.50;100.00
56038;BME280;41907;47.848;9.000;2022-08-21T05:12:04;95971.63;;;14.63;100.00
56038;BME280;41907;47.848;9.000;2022-08-21T05:14:29;95974.72;;;14.74;100.00
56038;BME280;41907;47.848;9.000;2022-08-21T05:16:55;95975.84;;;14.73;100.00
56038;BME280;41907;47.848;9.000;2022-08-21T05:19:20;95975.66;;;14.78;100.00
56038;BME280;41907;47.848;9.000;2022-08-21T05:21:46;95972.50;;;14.76;100.00
56038;BME280;41907;47.848;9.000;2022-08-21T05:24:15;95973.75;;;14.78;100.00
56038;BME280;41907;47.848;9.000;2022-08-21T05:26:41;95982.72;;;14.82;100.00
56038;BME280;41907;47.848;9.000;2022-08-21T05:29:06;95967.53;;;14.86;100.00
56038;BME280;41907;47.848;9.000;2022-08-21T05:31:32;95973.41;;;15.01;100.00
56038;BME280;41907;47.848;9.000;2022-08-21T05:33:57;95982.38;;;15.05;100.00
56038;BME280;41907;47.848;9.000;2022-08-21T05:36:23;95976.59;;;15.15;100.00
56038;BME280;41907;47.848;9.000;2022-08-21T05:38:48;95971.47;;;15.22;100.00
56038;BME280;41907;47.848;9.000;2022-08-21T05:41:14;95974.94;;;15.22;100.00
56038;BME280;41907;47.848;9.000;2022-08-21T05:43:39;95972.47;;;15.17;100.00
56038;BME280;41907;47.848;9.000;2022-08-21T05:46:06;95977.16;;;15.20;100.00
56038;BME280;41907;47.848;9.000;2022-08-21T05:48:32;95968.00;;;15.21;100.00
56038;BME280;41907;47.848;9.000;2022-08-21T05:51:05;95964.53;;;15.21;100.00
56038;BME280;41907;47.848;9.000;2022-08-21T05:53:30;95968.53;;;15.15;100.00
56038;BME280;41907;47.848;9.000;2022-08-21T05:55:56;95973.59;;;14.96;100.00
56038;BME280;41907;47.848;9.000;2022-08-21T05:58:21;95971.50;;;15.01;100.00
56038;BME280;41907;47.848;9.000;2022-08-21T06:00:49;95977.16;;;15.20;100.00
56038;BME280;41907;47.848;9.000;2022-08-21T06:03:19;95974.19;;;15.34;100.00
56038;BME280;41907;47.848;9.000;2022-08-21T06:05:45;95979.50;;;15.43;100.00
56038;BME280;41907;47.848;9.000;2022-08-21T06:08:11;95976.44;;;15.32;100.00
56038;BME280;41907;47.848;9.000;2022-08-21T06:10:36;95980.38;;;15.35;100.00
56038;BME280;41907;47.848;9.000;2022-08-21T06:13:02;95989.38;;;15.51;100.00
56038;BME280;41907;47.848;9.000;2022-08-21T06:15:27;95983.13;;;15.59;100.00
56038;BME280;41907;47.848;9.000;2022-08-21T06:17:54;95989.03;;;15.52;100.00
56038;BME280;41907;47.848;9.000;2022-08-21T06:20:20;95981.56;;;15.58;100.00
56038;BME280;41907;47.848;9.000;2022-08-21T06:22:45;95984.06;;;15.63;100.00
56038;BME280;41907;47.848;9.000;2022-08-21T06:25:11;95983.47;;;15.57;100.00
56038;BME280;41907;47.848;9.000;2022-08-21T06:27:36;95989.75;;;15.61;100.00
56038;BME280;41907;47.848;9.000;2022-08-21T06:30:06;95977.78;;;15.71;100.00
56038;BME280;41907;47.848;9.000;2022-08-21T06:32:32;95983.19;;;15.83;100.00
56038;BME280;41907;47.848;9.000;2022-08-21T06:34:57;95984.78;;;15.84;100.00
56038;BME280;41907;47.848;9.000;2022-08-21T06:37:22;95982.19;;;16.00;100.00
56038;BME280;41907;47.848;9.000;2022-08-21T06:39:48;95983.66;;;16.10;100.00
56038;BME280;41907;47.848;9.000;2022-08-21T06:42:17;95979.94;;;16.26;100.00
56038;BME280;41907;47.848;9.000;2022-08-21T06:44:43;95973.44;;;16.40;100.00
56038;BME280;41907;47.848;9.000;2022-08-21T06:47:09;95976.56;;;16.54;100.00
56038;BME280;41907;47.848;9.000;2022-08-21T06:49:35;95968.03;;;16.64;100.00
56038;BME280;41907;47.848;9.000;2022-08-21T06:52:00;95966.34;;;16.71;100.00
56038;BME280;41907;47.848;9.000;2022-08-21T06:54:26;95974.84;;;16.73;100.00
56038;BME280;41907;47.848;9.000;2022-08-21T06:56:51;95967.69;;;16.78;100.00
56038;BME280;41907;47.848;9.000;2022-08-21T06:59:17;95976.41;;;16.87;100.00
56038;BME280;41907;47.848;9.000;2022-08-21T07:01:43;95972.78;;;16.95;100.00
56038;BME280;41907;47.848;9.000;2022-08-21T07:04:09;95963.44;;;17.04;100.00
56038;BME280;41907;47.848;9.000;2022-08-21T07:06:35;95970.78;;;16.92;100.00
56038;BME280;41907;47.848;9.000;2022-08-21T07:09:01;95967.13;;;16.72;100.00
56038;BME280;41907;47.848;9.000;2022-08-21T07:11:27;95968.13;;;16.80;100.00
56038;BME280;41907;47.848;9.000;2022-08-21T07:13:53;95970.78;;;16.92;100.00
56038;BME280;41907;47.848;9.000;2022-08-21T07:16:20;95971.41;;;17.01;100.00
56038;BME280;41907;47.848;9.000;2022-08-21T07:18:46;95965.00;;;17.05;100.00
56038;BME280;41907;47.848;9.000;2022-08-21T07:21:12;95972.09;;;17.54;100.00
56038;BME280;41907;47.848;9.000;2022-08-21T07:23:40;95959.75;;;17.84;100.00
56038;BME280;41907;47.848;9.000;2022-08-21T07:26:07;95966.88;;;18.39;100.00
56038;BME280;41907;47.848;9.000;2022-08-21T07:28:32;95968.41;;;18.56;100.00
56038;BME280;41907;47.848;9.000;2022-08-21T07:31:00;95969.06;;;18.84;100.00
56038;BME280;41907;47.848;9.000;2022-08-21T07:33:27;95968.81;;;18.74;100.00
56038;BME280;41907;47.848;9.000;2022-08-21T07:35:53;95969.25;;;18.25;100.00
56038;BME280;41907;47.848;9.000;2022-08-21T07:38:18;95969.75;;;18.31;100.00
56038;BME280;41907;47.848;9.000;2022-08-21T07:40:46;95966.16;;;18.58;100.00
56038;BME280;41907;47.848;9.000;2022-08-21T07:43:11;95970.25;;;18.52;100.00
56038;BME280;41907;47.848;9.000;2022-08-21T07:45:37;95976.44;;;18.68;100.00
56038;BME280;41907;47.848;9.000;2022-08-21T07:48:03;95976.84;;;18.54;100.00
56038;BME280;41907;47.848;9.000;2022-08-21T07:50:28;95979.75;;;18.62;100.00
56038;BME280;41907;47.848;9.000;2022-08-21T07:52:54;95974.38;;;18.81;100.00
56038;BME280;41907;47.848;9.000;2022-08-21T07:55:21;95978.44;;;18.90;100.00
56038;BME280;41907;47.848;9.000;2022-08-21T07:57:47;95975.13;;;18.62;100.00
56038;BME280;41907;47.848;9.000;2022-08-21T08:00:16;95977.63;;;18.20;100.00
56038;BME280;41907;47.848;9.000;2022-08-21T08:02:45;95980.28;;;18.36;100.00
56038;BME280;41907;47.848;9.000;2022-08-21T08:05:12;95983.03;;;18.55;100.00
56038;BME280;41907;47.848;9.000;2022-08-21T08:07:38;95974.22;;;18.74;100.00
56038;BME280;41907;47.848;9.000;2022-08-21T08:10:05;95984.19;;;19.08;100.00
56038;BME280;41907;47.848;9.000;2022-08-21T08:12:33;95981.56;;;19.69;100.00
56038;BME280;41907;47.848;9.000;2022-08-21T08:15:00;95978.72;;;20.84;100.00
56038;BME280;41907;47.848;9.000;2022-08-21T08:17:26;95983.84;;;21.92;92.97
56038;BME280;41907;47.848;9.000;2022-08-21T08:19:52;95970.94;;;23.57;82.66
56038;BME280;41907;47.848;9.000;2022-08-21T08:22:19;95966.06;;;23.08;81.88
56038;BME280;41907;47.848;9.000;2022-08-21T08:24:46;95970.63;;;24.30;72.34
56038;BME280;41907;47.848;9.000;2022-08-21T08:27:12;95967.53;;;26.23;67.24
56038;BME280;41907;47.848;9.000;2022-08-21T08:29:37;95961.16;;;27.19;56.53
56038;BME280;41907;47.848;9.000;2022-08-21T08:32:04;95966.09;;;27.31;58.31
56038;BME280;41907;47.848;9.000;2022-08-21T08:34:32;95969.25;;;28.18;54.20
56038;BME280;41907;47.848;9.000;2022-08-21T08:36:58;95966.13;;;27.89;54.64
56038;BME280;41907;47.848;9.000;2022-08-21T08:39:24;95961.38;;;28.43;56.81
56038;BME280;41907;47.848;9.000;2022-08-21T08:41:57;95957.50;;;29.27;50.92
56038;BME280;41907;47.848;9.000;2022-08-21T08:44:24;95951.91;;;30.06;49.84
56038;BME280;41907;47.848;9.000;2022-08-21T08:46:51;95954.28;;;30.68;47.54
56038;BME280;41907;47.848;9.000;2022-08-21T08:49:29;95949.94;;;30.22;50.50
56038;BME280;41907;47.848;9.000;2022-08-21T08:52:14;95953.69;;;31.06;48.89
56038;BME280;41907;47.848;9.000;2022-08-21T08:54:45;95945.84;;;31.33;48.13
56038;BME280;41907;47.848;9.000;2022-08-21T08:57:17;95940.31;;;31.75;45.69
56038;BME280;41907;47.848;9.000;2022-08-21T08:59:46;95940.53;;;31.68;45.42
56038;BME280;41907;47.848;9.000;2022-08-21T09:02:14;95941.06;;;31.63;45.40
56038;BME280;41907;47.848;9.000;2022-08-21T09:04:41;95939.09;;;31.63;44.88
56038;BME280;41907;47.848;9.000;2022-08-21T09:07:47;95929.59;;;28.45;48.46
56038;BME280;41907;47.848;9.000;2022-08-21T09:13:49;95924.47;;;28.24;50.22
56038;BME280;41907;47.848;9.000;2022-08-21T09:19:14;95929.00;;;28.11;55.78
56038;BME280;41907;47.848;9.000;2022-08-21T09:21:50;95928.88;;;28.65;54.08
56038;BME280;41907;47.848;9.000;2022-08-21T09:24:47;95925.25;;;27.98;54.42
56038;BME280;41907;47.848;9.000;2022-08-21T09:27:18;95921.28;;;27.75;54.76
56038;BME280;41907;47.848;9.000;2022-08-21T09:29:54;95914.44;;;27.64;55.29
56038;BME280;41907;47.848;9.000;2022-08-21T09:32:25;95906.41;;;27.46;54.63
56038;BME280;41907;47.848;9.000;2022-08-21T09:37:25;95905.47;;;27.60;55.73
56038;BME280;41907;47.848;9.000;2022-08-21T09:39:50;95911.16;;;27.99;52.74
56038;BME280;41907;47.848;9.000;2022-08-21T09:42:26;95905.69;;;28.23;54.28
56038;BME280;41907;47.848;9.000;2022-08-21T09:45:06;95896.00;;;28.14;52.92
56038;BME280;41907;47.848;9.000;2022-08-21T09:47:32;95898.81;;;28.11;52.20
56038;BME280;41907;47.848;9.000;2022-08-21T09:50:08;95888.44;;;27.45;53.63
56038;BME280;41907;47.848;9.000;2022-08-21T09:52:34;95887.16;;;26.92;51.92
56038;BME280;41907;47.848;9.000;2022-08-21T09:54:59;95884.34;;;26.62;53.64
56038;BME280;41907;47.848;9.000;2022-08-21T09:57:28;95881.66;;;26.96;55.86
56038;BME280;41907;47.848;9.000;2022-08-21T10:00:29;95874.97;;;26.63;53.01
56038;BME280;41907;47.848;9.000;2022-08-21T10:05:40;95877.94;;;26.79;58.77
56038;BME280;41907;47.848;9.000;2022-08-21T10:08:19;95872.06;;;27.11;54.25
56038;BME280;41907;47.848;9.000;2022-08-21T10:10:45;95875.41;;;27.26;50.07
56038;BME280;41907;47.848;9.000;2022-08-21T10:13:22;95874.00;;;27.14;51.68
56038;BME280;41907;47.848;9.000;2022-08-21T10:29:17;95857.25;;;25.44;50.10
56038;BME280;41907;47.848;9.000;2022-08-21T10:34:27;95851.97;;;25.75;53.14
56038;BME280;41907;47.848;9.000;2022-08-21T10:37:01;95845.41;;;26.13;48.77
56038;BME280;41907;47.848;9.000;2022-08-21T10:39:34;95845.56;;;26.71;51.15
56038;BME280;41907;47.848;9.000;2022-08-21T10:47:55;95851.84;;;27.32;49.18
56038;BME280;41907;47.848;9.000;2022-08-21T10:55:55;95845.56;;;27.35;48.16
56038;BME280;41907;47.848;9.000;2022-08-21T10:58:28;95841.19;;;27.37;47.83
56038;BME280;41907;47.848;9.000;2022-08-21T11:01:23;95842.53;;;27.53;45.81
56038;BME280;41907;47.848;9.000;2022-08-21T11:03:51;95841.25;;;26.73;43.87
56038;BME280;41907;47.848;9.000;2022-08-21T11:06:25;95829.28;;;25.81;45.06
56038;BME280;41907;47.848;9.000;2022-08-21T11:08:57;95828.50;;;25.77;45.92
56038;BME280;41907;47.848;9.000;2022-08-21T11:11:38;95823.16;;;25.67;45.54
56038;BME280;41907;47.848;9.000;2022-08-21T11:17:01;95815.34;;;26.10;49.58
56038;BME280;41907;47.848;9.000;2022-08-21T11:19:35;95814.59;;;26.06;45.69
56038;BME280;41907;47.848;9.000;2022-08-21T11:24:57;95814.34;;;26.34;45.77
56038;BME280;41907;47.848;9.000;2022-08-21T11:27:43;95812.31;;;26.42;46.40
56038;BME280;41907;47.848;9.000;2022-08-21T11:30:10;95805.22;;;26.78;47.18
56038;BME280;41907;47.848;9.000;2022-08-21T11:33:20;95806.75;;;26.49;43.82
56038;BME280;41907;47.848;9.000;2022-08-21T11:35:45;95806.47;;;27.31;46.50
56038;BME280;41907;47.848;9.000;2022-08-21T11:41:03;95796.94;;;27.89;43.26
56038;BME280;41907;47.848;9.000;2022-08-21T11:48:43;95783.34;;;27.35;43.33
56038;BME280;41907;47.848;9.000;2022-08-21T11:51:14;95787.75;;;27.53;43.49
56038;BME280;41907;47.848;9.000;2022-08-21T11:53:49;95781.00;;;28.04;44.94
56038;BME280;41907;47.848;9.000;2022-08-21T11:56:39;95782.00;;;27.70;41.47
56038;BME280;41907;47.848;9.000;2022-08-21T11:59:17;95777.84;;;27.35;42.91
56038;BME280;41907;47.848;9.000;2022-08-21T12:01:46;95778.72;;;26.41;45.86
56038;BME280;41907;47.848;9.000;2022-08-21T12:06:42;95770.56;;;26.68;44.47
56038;BME280;41907;47.848;9.000;2022-08-21T12:09:33;95769.78;;;26.67;45.16
56038;BME280;41907;47.848;9.000;2022-08-21T12:17:39;95769.25;;;27.60;45.13
56038;BME280;41907;47.848;9.000;2022-08-21T12:20:34;95770.44;;;27.59;42.91
56038;BME280;41907;47.848;9.000;2022-08-21T12:23:14;95768.75;;;27.42;40.82
56038;BME280;41907;47.848;9.000;2022-08-21T12:25:48;95766.22;;;27.01;46.73
56038;BME280;41907;47.848;9.000;2022-08-21T12:28:24;95762.16;;;26.52;42.83
56038;BME280;41907;47.848;9.000;2022-08-21T12:30:50;95755.09;;;26.20;44.53
56038;BME280;41907;47.848;9.000;2022-08-21T12:33:23;95755.69;;;26.39;46.46
56038;BME280;41907;47.848;9.000;2022-08-21T12:35:51;95756.88;;;26.38;44.92
56038;BME280;41907;47.848;9.000;2022-08-21T12:38:21;95750.13;;;25.71;45.07
56038;BME280;41907;47.848;9.000;2022-08-21T12:43:20;95754.97;;;25.52;45.74
56038;BME280;41907;47.848;9.000;2022-08-21T12:45:48;95748.00;;;25.44;44.36
56038;BME280;41907;47.848;9.000;2022-08-21T12:48:20;95750.50;;;25.25;44.35
56038;BME280;41907;47.848;9.000;2022-08-21T12:51:05;95742.91;;;24.95;43.58
56038;BME280;41907;47.848;9.000;2022-08-21T12:56:12;95746.50;;;25.84;48.33
56038;BME280;41907;47.848;9.000;2022-08-21T12:58:53;95745.94;;;26.00;44.54
56038;BME280;41907;47.848;9.000;2022-08-21T13:01:27;95739.50;;;25.80;43.81
56038;BME280;41907;47.848;9.000;2022-08-21T13:03:56;95730.44;;;26.24;39.44
56038;BME280;41907;47.848;9.000;2022-08-21T13:06:23;95731.31;;;26.51;39.88
56038;BME280;41907;47.848;9.000;2022-08-21T13:08:54;95740.13;;;26.62;43.01
56038;BME280;41907;47.848;9.000;2022-08-21T13:11:22;95728.47;;;26.58;43.59
56038;BME280;41907;47.848;9.000;2022-08-21T13:13:50;95736.44;;;26.76;42.83
56038;BME280;41907;47.848;9.000;2022-08-21T13:16:23;95738.47;;;26.99;40.97
56038;BME280;41907;47.848;9.000;2022-08-21T13:19:00;95735.25;;;26.77;37.83
56038;BME280;41907;47.848;9.000;2022-08-21T13:21:32;95732.25;;;26.68;40.06
56038;BME280;41907;47.848;9.000;2022-08-21T13:24:17;95728.47;;;26.58;46.37
56038;BME280;41907;47.848;9.000;2022-08-21T13:26:43;95733.38;;;26.71;43.08
56038;BME280;41907;47.848;9.000;2022-08-21T13:29:14;95729.84;;;26.43;44.20
56038;BME280;41907;47.848;9.000;2022-08-21T13:31:47;95725.78;;;26.55;47.65
56038;BME280;41907;47.848;9.000;2022-08-21T13:34:14;95724.66;;;26.18;42.81
56038;BME280;41907;47.848;9.000;2022-08-21T13:36:42;95722.09;;;25.67;40.43
56038;BME280;41907;47.848;9.000;2022-08-21T13:39:12;95721.28;;;25.21;39.98
56038;BME280;41907;47.848;9.000;2022-08-21T13:41:43;95717.25;;;25.37;42.02
56038;BME280;41907;47.848;9.000;2022-08-21T13:44:36;95728.03;;;25.54;42.83
56038;BME280;41907;47.848;9.000;2022-08-21T13:47:05;95718.59;;;25.59;40.98
56038;BME280;41907;47.848;9.000;2022-08-21T13:49:34;95718.84;;;25.79;43.52
56038;BME280;41907;47.848;9.000;2022-08-21T13:52:01;95714.03;;;25.90;45.33
56038;BME280;41907;47.848;9.000;2022-08-21T13:54:39;95715.31;;;25.78;39.82
56038;BME280;41907;47.848;9.000;2022-08-21T13:57:16;95706.03;;;25.72;41.92
56038;BME280;41907;47.848;9.000;2022-08-21T13:59:41;95705.88;;;25.86;44.97
56038;BME280;41907;47.848;9.000;2022-08-21T14:02:19;95711.63;;;25.95;42.01
56038;BME280;41907;47.848;9.000;2022-08-21T14:04:58;95705.41;;;25.95;40.55
56038;BME280;41907;47.848;9.000;2022-08-21T14:07:40;95706.63;;;25.87;41.66